createdAt,value
2022-08-21T00:01:52.365Z,9.80
2022-08-21T00:04:22.118Z,10.38
2022-08-21T00:06:51.466Z,10.82
2022-08-21T00:09:19.711Z,9.45
2022-08-21T00:11:48.658Z,8.88
2022-08-21T00:14:16.394Z,10.85
2022-08-21T00:16:43.860Z,8.70
2022-08-21T00:19:11.703Z,7.32
2022-08-21T00:21:39.000Z,7.30
2022-08-21T00:24:06.334Z,9.80
2022-08-21T00:26:35.029Z,7.55
2022-08-21T00:29:05.046Z,8.90
2022-08-21T00:31:32.294Z,17.05
2022-08-21T00:34:01.036Z,14.93
2022-08-21T00:36:29.458Z,15.98
2022-08-21T00:38:57.586Z,20.35
2022-08-21T00:41:38.633Z,15.90
2022-08-21T00:44:10.704Z,12.18
2022-08-21T00:46:39.504Z,9.93
2022-08-21T00:49:08.407Z,11.98
2022-08-21T00:51:51.965Z,11.18
2022-08-21T00:54:23.120Z,10.82
2022-08-21T00:56:56.502Z,9.88
2022-08-21T00:59:28.594Z,8.55
2022-08-21T01:01:55.914Z,9.43
2022-08-21T01:04:23.949Z,12.20
2022-08-21T01:06:52.318Z,6.65
2022-08-21T01:09:19.942Z,9.10
2022-08-21T01:11:47.669Z,11.50
2022-08-21T01:14:16.035Z,7.68
2022-08-21T01:16:47.149Z,6.22
2022-08-21T01:19:15.846Z,7.80
2022-08-21T01:21:44.105Z,7.07
2022-08-21T01:24:12.825Z,7.18
2022-08-21T01:26:41.024Z,10.73
2022-08-21T01:29:11.084Z,10.65
2022-08-21T01:31:39.155Z,6.00
2022-08-21T01:34:07.734Z,7.68
2022-08-21T01:36:35.552Z,7.85
2022-08-21T01:39:05.238Z,7.30
2022-08-21T01:41:32.551Z,7.95
2022-08-21T01:43:59.806Z,9.35
2022-08-21T01:46:27.401Z,12.77
2022-08-21T01:48:54.639Z,8.18
2022-08-21T01:51:22.041Z,11.40
2022-08-21T01:53:49.330Z,10.52
2022-08-21T01:56:17.995Z,7.18
2022-08-21T01:58:47.724Z,10.10
2022-08-21T02:01:15.368Z,6.43
2022-08-21T02:03:42.935Z,18.58
2022-08-21T02:06:15.719Z,8.25
2022-08-21T02:08:42.951Z,11.35
2022-08-21T02:11:10.228Z,10.77
2022-08-21T02:13:37.476Z,9.88
2022-08-21T02:16:05.271Z,9.95
2022-08-21T02:18:32.506Z,5.70
2022-08-21T02:20:59.753Z,6.50
2022-08-21T02:23:27.660Z,7.55
2022-08-21T02:25:57.639Z,8.85
2022-08-21T02:28:24.899Z,9.95
2022-08-21T02:30:53.959Z,10.77
2022-08-21T02:33:21.772Z,6.18
2022-08-21T02:35:50.910Z,10.05
2022-08-21T02:38:21.720Z,7.32
2022-08-21T02:40:51.294Z,12.02
2022-08-21T02:43:20.595Z,6.28
2022-08-21T02:45:48.441Z,8.55
2022-08-21T02:48:20.023Z,6.90
2022-08-21T02:50:57.999Z,7.53
2022-08-21T02:53:25.885Z,8.68
2022-08-21T02:55:54.726Z,5.32
2022-08-21T02:58:26.546Z,8.57
2022-08-21T03:00:54.220Z,9.55
2022-08-21T03:03:22.097Z,7.10
2022-08-21T03:05:50.009Z,7.18
2022-08-21T03:08:18.060Z,6.05
2022-08-21T03:10:50.699Z,8.13
2022-08-21T03:13:21.295Z,9.88
2022-08-21T03:15:50.185Z,6.68
2022-08-21T03:18:17.759Z,8.00
2022-08-21T03:20:46.103Z,11.00
2022-08-21T03:23:18.492Z,6.97
2022-08-21T03:25:48.211Z,8.32
2022-08-21T03:28:19.383Z,8.20
2022-08-21T03:30:49.135Z,8.82
2022-08-21T03:33:16.680Z,11.85
2022-08-21T03:36:01.479Z,8.10
2022-08-21T03:38:30.045Z,8.77
2022-08-21T03:40:57.637Z,8.02
2022-08-21T03:43:24.879Z,10.48
2022-08-21T03:45:52.725Z,8.60
2022-08-21T03:48:20.440Z,9.23
2022-08-21T03:50:50.135Z,8.75
2022-08-21T03:53:18.115Z,10.15
2022-08-21T03:55:47.881Z,9.80
2022-08-21T03:58:17.902Z,11.23
2022-08-21T04:00:47.469Z,9.90
2022-08-21T04:03:14.811Z,9.48
2022-08-21T04:05:42.696Z,13.13
2022-08-21T04:08:10.169Z,10.13
2022-08-21T04:10:40.597Z,8.98
2022-08-21T04:13:09.323Z,8.07
2022-08-21T04:15:37.194Z,12.38
2022-08-21T04:18:05.231Z,9.73
2022-08-21T04:20:32.783Z,10.80
2022-08-21T04:23:00.189Z,6.72
2022-08-21T04:25:27.939Z,9.57
2022-08-21T04:27:55.701Z,9.70
2022-08-21T04:30:28.084Z,12.15
2022-08-21T04:32:58.428Z,11.68
2022-08-21T04:35:28.010Z,19.83
2022-08-21T04:37:55.589Z,11.45
2022-08-21T04:40:25.637Z,13.75
2022-08-21T04:42:55.601Z,8.13
2022-08-21T04:45:36.258Z,10.68
2022-08-21T04:48:09.552Z,11.80
2022-08-21T04:50:44.016Z,13.82
2022-08-21T04:53:25.966Z,9.73
2022-08-21T04:55:56.295Z,10.85
2022-08-21T04:58:26.300Z,11.52
2022-08-21T05:00:56.647Z,8.70
2022-08-21T05:03:24.433Z,7.43
2022-08-21T05:05:51.718Z,6.60
2022-08-21T05:08:22.362Z,9.43
2022-08-21T05:10:49.692Z,11.40
2022-08-21T05:13:17.495Z,12.30
2022-08-21T05:15:44.966Z,8.38
2022-08-21T05:18:12.173Z,6.50
2022-08-21T05:20:39.592Z,13.00
2022-08-21T05:23:11.374Z,8.07
2022-08-21T05:25:39.431Z,9.35
2022-08-21T05:28:07.250Z,10.10
2022-08-21T05:30:36.086Z,6.75
2022-08-21T05:33:06.141Z,7.47
2022-08-21T05:35:33.894Z,8.80
2022-08-21T05:38:01.453Z,5.90
2022-08-21T05:40:28.860Z,7.88
2022-08-21T05:42:57.270Z,9.02
2022-08-21T05:45:42.980Z,7.35
2022-08-21T05:48:14.577Z,9.20
2022-08-21T05:50:42.812Z,10.48
2022-08-21T05:53:11.188Z,9.05
2022-08-21T05:55:44.895Z,11.70
2022-08-21T05:58:15.825Z,6.82
2022-08-21T06:00:44.480Z,7.95
2022-08-21T06:03:14.409Z,8.10
2022-08-21T06:05:42.006Z,5.97
2022-08-21T06:08:09.662Z,10.60
2022-08-21T06:10:36.927Z,9.88
2022-08-21T06:13:05.587Z,12.10
2022-08-21T06:15:32.830Z,7.60
2022-08-21T06:18:00.070Z,7.75
2022-08-21T06:20:27.685Z,5.88
2022-08-21T06:22:55.426Z,7.53
2022-08-21T06:25:22.846Z,12.32
2022-08-21T06:27:50.066Z,10.10
2022-08-21T06:30:17.878Z,9.30
2022-08-21T06:32:45.263Z,8.30
2022-08-21T06:35:12.554Z,8.30
2022-08-21T06:37:39.805Z,6.45
2022-08-21T06:40:12.396Z,7.78
2022-08-21T06:42:42.679Z,8.52
2022-08-21T06:45:11.023Z,6.38
2022-08-21T06:47:38.368Z,9.50
2022-08-21T06:50:08.396Z,5.30
2022-08-21T06:52:39.527Z,11.85
2022-08-21T06:55:10.037Z,4.63
2022-08-21T06:57:37.317Z,5.00
2022-08-21T07:00:05.735Z,4.90
2022-08-21T07:02:34.514Z,5.70
2022-08-21T07:05:02.171Z,4.85
2022-08-21T07:07:46.538Z,7.45
2022-08-21T07:10:22.619Z,7.00
2022-08-21T07:13:00.617Z,3.97
2022-08-21T07:15:30.980Z,9.57
2022-08-21T07:17:59.562Z,7.63
2022-08-21T07:20:29.519Z,4.40
2022-08-21T07:23:00.621Z,4.78
2022-08-21T07:25:28.360Z,6.75
2022-08-21T07:27:56.248Z,4.78
2022-08-21T07:30:24.808Z,5.38
2022-08-21T07:32:52.607Z,8.48
2022-08-21T07:35:21.371Z,8.23
2022-08-21T07:37:49.019Z,6.65
2022-08-21T07:40:18.161Z,5.25
2022-08-21T07:42:48.222Z,7.43
2022-08-21T07:45:16.288Z,4.00
2022-08-21T07:47:43.562Z,7.60
2022-08-21T07:50:13.262Z,6.25
2022-08-21T07:52:41.775Z,6.03
2022-08-21T07:55:11.800Z,5.20
2022-08-21T07:57:39.692Z,6.85
2022-08-21T08:00:10.668Z,5.43
2022-08-21T08:02:41.614Z,6.72
2022-08-21T08:05:12.090Z,5.25
2022-08-21T08:07:40.018Z,5.40
2022-08-21T08:10:08.663Z,10.52
2022-08-21T08:12:42.024Z,5.97
2022-08-21T08:15:16.918Z,2.53
2022-08-21T08:17:44.578Z,3.90
2022-08-21T08:20:14.130Z,6.18
2022-08-21T08:22:42.261Z,4.35
2022-08-21T08:25:11.319Z,3.72
2022-08-21T08:27:38.897Z,6.57
2022-08-21T08:30:07.988Z,5.22
2022-08-21T08:32:35.586Z,9.75
2022-08-21T08:35:03.136Z,5.00
2022-08-21T08:37:34.594Z,4.60
2022-08-21T08:40:03.512Z,4.43
2022-08-21T08:42:35.546Z,3.80
2022-08-21T08:48:14.486Z,5.22
2022-08-21T08:50:49.264Z,7.18
2022-08-21T08:53:24.224Z,9.30
2022-08-21T08:55:53.729Z,8.45
2022-08-21T08:58:33.389Z,4.95
2022-08-21T09:01:01.958Z,9.10
2022-08-21T09:03:29.748Z,9.35
2022-08-21T09:06:08.243Z,5.30
2022-08-21T09:09:03.172Z,5.15
2022-08-21T09:11:42.358Z,5.32
2022-08-21T09:14:38.079Z,6.60
2022-08-21T09:17:42.940Z,5.47
2022-08-21T09:21:01.311Z,6.30
2022-08-21T09:23:31.635Z,3.80
2022-08-21T09:26:20.666Z,3.95
2022-08-21T09:28:54.968Z,4.28
2022-08-21T09:31:29.906Z,5.53
2022-08-21T09:34:07.122Z,3.90
2022-08-21T09:36:48.012Z,6.00
2022-08-21T09:39:28.408Z,6.00
2022-08-21T09:42:08.942Z,4.60
2022-08-21T09:44:41.483Z,7.15
2022-08-21T09:47:13.376Z,5.65
2022-08-21T09:49:43.148Z,3.08
2022-08-21T09:52:22.779Z,4.47
2022-08-21T09:54:54.586Z,5.65
2022-08-21T09:57:41.718Z,4.65
2022-08-21T10:00:27.856Z,7.90
2022-08-21T10:02:55.257Z,4.40
2022-08-21T10:05:27.061Z,13.52
2022-08-21T10:07:54.377Z,8.27
2022-08-21T10:10:26.531Z,6.13
2022-08-21T10:13:15.296Z,4.78
2022-08-21T10:16:17.068Z,5.70
2022-08-21T10:18:48.805Z,3.38
2022-08-21T10:21:36.692Z,4.38
2022-08-21T10:24:30.428Z,3.35
2022-08-21T10:27:07.136Z,3.35
2022-08-21T10:29:57.907Z,4.72
2022-08-21T10:32:48.981Z,4.78
2022-08-21T10:35:37.103Z,6.03
2022-08-21T10:39:25.239Z,9.05
2022-08-21T10:42:10.279Z,8.50
2022-08-21T10:44:47.443Z,5.07
2022-08-21T10:47:37.824Z,6.00
2022-08-21T10:50:27.843Z,6.43
2022-08-21T10:52:58.143Z,9.57
2022-08-21T10:55:32.326Z,6.57
2022-08-21T10:58:05.483Z,3.30
2022-08-21T11:00:51.699Z,3.05
2022-08-21T11:03:34.459Z,3.95
2022-08-21T11:06:22.331Z,4.82
2022-08-21T11:09:05.179Z,4.35
2022-08-21T11:11:43.911Z,4.00
2022-08-21T11:14:49.939Z,5.43
2022-08-21T11:17:23.078Z,4.00
2022-08-21T11:19:55.834Z,6.90
2022-08-21T11:22:41.167Z,5.70
2022-08-21T11:25:33.792Z,7.28
2022-08-21T11:28:04.275Z,3.45
2022-08-21T11:30:46.162Z,3.58
2022-08-21T11:33:42.806Z,6.03
2022-08-21T11:36:15.979Z,4.32
2022-08-21T11:38:55.831Z,6.75
2022-08-21T11:41:35.477Z,3.97
2022-08-21T11:44:11.683Z,5.18
2022-08-21T11:46:54.718Z,3.42
2022-08-21T11:49:46.250Z,3.72
2022-08-21T11:52:34.667Z,1.92
2022-08-21T11:55:26.994Z,3.95
2022-08-21T11:57:56.506Z,5.47
2022-08-21T12:00:29.585Z,5.80
2022-08-21T12:03:00.418Z,3.50
2022-08-21T12:05:38.694Z,2.92
2022-08-21T12:08:27.532Z,4.68
2022-08-21T12:11:21.283Z,6.70
2022-08-21T12:13:54.681Z,3.00
2022-08-21T12:16:34.752Z,5.97
2022-08-21T12:19:11.830Z,4.47
2022-08-21T12:21:52.616Z,3.90
2022-08-21T12:24:28.012Z,4.65
2022-08-21T12:27:02.052Z,3.05
2022-08-21T12:29:36.905Z,7.22
2022-08-21T12:32:23.346Z,3.28
2022-08-21T12:35:18.590Z,4.00
2022-08-21T12:38:16.779Z,3.67
2022-08-21T12:40:51.241Z,2.60
2022-08-21T12:43:38.424Z,2.45
2022-08-21T12:46:06.029Z,5.32
2022-08-21T12:48:48.113Z,6.95
2022-08-21T12:51:19.319Z,5.10
2022-08-21T12:53:55.743Z,4.78
2022-08-21T12:56:26.075Z,4.07
2022-08-21T12:58:57.428Z,2.97
2022-08-21T13:01:55.924Z,3.72
2022-08-21T13:04:37.274Z,5.63
2022-08-21T13:07:11.894Z,8.25
2022-08-21T13:09:55.559Z,5.10
2022-08-21T13:12:24.231Z,3.45
2022-08-21T13:14:59.762Z,5.78
2022-08-21T13:17:33.050Z,4.95
2022-08-21T13:20:04.474Z,3.13
2022-08-21T13:22:35.152Z,3.40
2022-08-21T13:25:09.864Z,2.75
2022-08-21T13:27:37.162Z,1.95
2022-08-21T13:30:19.702Z,3.83
2022-08-21T13:32:51.128Z,4.57
2022-08-21T13:35:26.724Z,4.47
2022-08-21T13:37:55.659Z,3.75
2022-08-21T13:40:46.841Z,4.53
2022-08-21T13:43:19.903Z,4.50
2022-08-21T13:45:51.080Z,4.00
2022-08-21T13:48:18.943Z,4.40
2022-08-21T13:50:46.697Z,6.45
2022-08-21T13:53:34.159Z,5.40
2022-08-21T13:56:03.163Z,4.95
2022-08-21T13:58:43.368Z,3.45
2022-08-21T14:01:27.136Z,3.03
2022-08-21T14:03:58.935Z,2.45
2022-08-21T14:06:28.610Z,4.68
2022-08-21T14:09:11.315Z,6.43
2022-08-21T14:11:40.434Z,3.00
2022-08-21T14:14:19.875Z,2.33
2022-08-21T14:16:55.494Z,4.30
2022-08-21T14:19:39.369Z,3.38
2022-08-21T14:22:49.090Z,7.15
2022-08-21T14:25:52.272Z,3.78
2022-08-21T14:28:39.911Z,2.17
2022-08-21T14:31:18.143Z,2.63
2022-08-21T14:33:47.348Z,5.65
2022-08-21T14:36:15.436Z,2.33
2022-08-21T14:38:42.747Z,4.55
2022-08-21T14:41:27.069Z,11.45
2022-08-21T14:43:57.738Z,13.52
2022-08-21T14:46:36.387Z,26.98
2022-08-21T14:49:11.278Z,4.75
2022-08-21T14:51:39.838Z,7.57
2022-08-21T14:54:28.107Z,1.70
2022-08-21T14:57:01.707Z,3.10
2022-08-21T14:59:29.434Z,3.45
2022-08-21T15:01:57.257Z,2.17
2022-08-21T15:04:24.872Z,2.55
2022-08-21T15:06:52.175Z,3.95
2022-08-21T15:09:19.472Z,1.95
2022-08-21T15:11:46.780Z,2.35
2022-08-21T15:14:20.731Z,4.47
2022-08-21T15:16:49.311Z,4.72
2022-08-21T15:19:16.673Z,3.33
2022-08-21T15:21:44.127Z,3.00
2022-08-21T15:24:11.513Z,3.05
2022-08-21T15:26:39.043Z,4.70
2022-08-21T15:29:08.828Z,3.78
2022-08-21T15:31:37.286Z,4.00
2022-08-21T15:34:04.559Z,2.22
2022-08-21T15:36:32.197Z,4.55
2022-08-21T15:38:59.503Z,2.53
2022-08-21T15:41:26.768Z,3.30
2022-08-21T15:43:54.710Z,3.28
2022-08-21T15:46:25.418Z,2.22
2022-08-21T15:48:56.606Z,2.55
2022-08-21T15:51:27.013Z,2.13
2022-08-21T15:53:57.351Z,1.60
2022-08-21T15:56:34.430Z,1.90
2022-08-21T15:59:07.423Z,4.25
2022-08-21T16:01:44.922Z,3.55
2022-08-21T16:04:20.865Z,1.92
2022-08-21T16:06:55.435Z,2.70
2022-08-21T16:09:25.475Z,4.00
2022-08-21T16:11:54.095Z,3.42
2022-08-21T16:14:21.525Z,3.60
2022-08-21T16:16:48.817Z,5.30
2022-08-21T16:19:16.323Z,5.05
2022-08-21T16:21:43.843Z,1.77
2022-08-21T16:24:11.264Z,1.33
2022-08-21T16:26:39.687Z,5.55
2022-08-21T16:29:08.723Z,3.38
2022-08-21T16:31:36.489Z,3.10
2022-08-21T16:34:04.205Z,6.55
2022-08-21T16:36:31.567Z,3.17
2022-08-21T16:39:00.759Z,4.07
2022-08-21T16:41:34.458Z,2.97
2022-08-21T16:44:02.589Z,3.20
2022-08-21T16:46:33.711Z,2.05
2022-08-21T16:49:01.437Z,1.33
2022-08-21T16:51:29.284Z,4.18
2022-08-21T16:53:57.244Z,4.32
2022-08-21T16:56:25.076Z,2.05
2022-08-21T16:58:54.601Z,4.85
2022-08-21T17:01:26.472Z,3.13
2022-08-21T17:03:54.402Z,3.28
2022-08-21T17:06:28.054Z,2.88
2022-08-21T17:08:57.530Z,5.13
2022-08-21T17:11:40.732Z,7.95
2022-08-21T17:14:21.146Z,24.65
2022-08-21T17:16:51.985Z,6.25
2022-08-21T17:19:20.675Z,2.88
2022-08-21T17:21:48.297Z,10.35
2022-08-21T17:24:18.037Z,4.72
2022-08-21T17:26:46.293Z,12.63
2022-08-21T17:29:16.055Z,4.22
2022-08-21T17:31:44.467Z,6.72
2022-08-21T17:34:12.960Z,6.45
2022-08-21T17:36:40.500Z,5.07
2022-08-21T17:39:08.993Z,4.35
2022-08-21T17:41:36.812Z,4.15
2022-08-21T17:44:07.268Z,5.28
2022-08-21T17:46:34.775Z,6.13
2022-08-21T17:49:02.421Z,3.30
2022-08-21T17:51:29.902Z,4.13
2022-08-21T17:53:57.376Z,5.00
2022-08-21T17:56:30.915Z,2.40
2022-08-21T17:58:58.693Z,4.75
2022-08-21T18:01:30.037Z,3.65
2022-08-21T18:03:57.576Z,2.72
2022-08-21T18:06:25.812Z,2.83
2022-08-21T18:08:53.634Z,3.58
2022-08-21T18:11:25.144Z,2.78
2022-08-21T18:13:54.188Z,3.75
2022-08-21T18:16:22.977Z,3.65
2022-08-21T18:18:51.656Z,3.60
2022-08-21T18:21:19.844Z,3.38
2022-08-21T18:23:48.018Z,4.13
2022-08-21T18:26:21.036Z,3.03
2022-08-21T18:28:48.694Z,2.50
2022-08-21T18:31:16.118Z,2.35
2022-08-21T18:33:58.464Z,2.30
2022-08-21T18:36:29.674Z,2.72
2022-08-21T18:39:13.620Z,3.63
2022-08-21T18:41:47.200Z,4.10
2022-08-21T18:44:17.206Z,2.58
2022-08-21T18:46:49.635Z,2.88
2022-08-21T18:49:17.300Z,2.38
2022-08-21T18:51:46.712Z,4.13
2022-08-21T18:54:14.916Z,2.90
2022-08-21T18:56:42.652Z,2.75
2022-08-21T18:59:12.253Z,2.95
2022-08-21T19:01:40.339Z,2.70
2022-08-21T19:04:08.883Z,2.25
2022-08-21T19:06:37.949Z,1.33
2022-08-21T19:09:09.608Z,2.08
2022-08-21T19:14:28.317Z,1.67
2022-08-21T19:16:55.705Z,2.13
2022-08-21T19:19:23.270Z,2.30
2022-08-21T19:21:50.618Z,5.07
2022-08-21T19:24:18.304Z,2.10
2022-08-21T19:26:50.864Z,7.50
2022-08-21T19:29:34.395Z,3.30
2022-08-21T19:32:06.952Z,3.70
2022-08-21T19:34:37.221Z,2.55
2022-08-21T19:37:06.521Z,2.53
2022-08-21T19:39:39.526Z,3.30
2022-08-21T19:42:10.722Z,2.25
2022-08-21T19:44:39.583Z,3.60
2022-08-21T19:47:14.125Z,3.70
2022-08-21T19:49:54.163Z,5.35
2022-08-21T19:52:23.060Z,3.95
2022-08-21T19:54:52.399Z,5.07
2022-08-21T19:57:19.853Z,5.35
2022-08-21T19:59:47.213Z,7.00
2022-08-21T20:02:17.999Z,3.25
2022-08-21T20:07:34.467Z,2.17
2022-08-21T20:10:02.330Z,2.85
2022-08-21T20:12:30.098Z,2.78
2022-08-21T20:14:58.101Z,4.90
2022-08-21T20:17:25.901Z,2.97
2022-08-21T20:22:41.923Z,3.35
2022-08-21T20:25:09.568Z,4.18
2022-08-21T20:27:40.349Z,4.95
2022-08-21T20:30:08.835Z,2.42
2022-08-21T20:32:36.275Z,3.38
2022-08-21T20:35:05.401Z,2.95
2022-08-21T20:37:39.774Z,4.57
2022-08-21T20:40:10.830Z,3.28
2022-08-21T20:42:40.515Z,4.53
2022-08-21T20:45:09.418Z,3.17
2022-08-21T20:47:38.104Z,3.67
2022-08-21T20:50:13.609Z,2.63
2022-08-21T20:52:41.751Z,3.28
2022-08-21T20:55:19.330Z,4.43
2022-08-21T20:58:04.093Z,3.60
2022-08-21T21:00:39.952Z,5.82
2022-08-21T21:03:17.317Z,3.83
2022-08-21T21:05:57.462Z,4.65
2022-08-21T21:08:39.691Z,3.22
2022-08-21T21:11:16.934Z,3.67
2022-08-21T21:14:00.024Z,2.85
2022-08-21T21:16:33.737Z,6.38
2022-08-21T21:19:23.185Z,1.90
2022-08-21T21:22:00.364Z,3.10
2022-08-21T21:24:43.983Z,5.15
2022-08-21T21:27:34.882Z,3.28
2022-08-21T21:30:11.995Z,3.05
2022-08-21T21:32:39.878Z,2.80
2022-08-21T21:35:08.571Z,2.13
2022-08-21T21:38:20.298Z,2.08
2022-08-21T21:41:00.166Z,3.78
2022-08-21T21:43:45.521Z,4.40
2022-08-21T21:46:46.103Z,6.82
2022-08-21T21:49:50.274Z,2.50
2022-08-21T21:52:30.919Z,5.63
2022-08-21T21:54:58.382Z,3.72
2022-08-21T21:58:03.694Z,3.97
2022-08-21T22:00:34.220Z,2.95
2022-08-21T22:03:04.612Z,2.75
2022-08-21T22:05:49.510Z,4.15
2022-08-21T22:08:50.534Z,6.95
2022-08-21T22:11:44.936Z,6.03
2022-08-21T22:14:15.981Z,9.00
2022-08-21T22:16:49.068Z,4.97
2022-08-21T22:19:19.162Z,6.70
2022-08-21T22:21:58.545Z,4.25
2022-08-21T22:24:33.686Z,3.50
2022-08-21T22:27:06.549Z,4.85
2022-08-21T22:29:46.333Z,5.30
2022-08-21T22:32:27.472Z,5.13
2022-08-21T22:35:21.860Z,6.05
2022-08-21T22:37:57.971Z,3.60
2022-08-21T22:40:34.913Z,3.05
2022-08-21T22:43:04.154Z,4.65
2022-08-21T22:46:05.864Z,3.58
2022-08-21T22:48:40.119Z,2.90
2022-08-21T22:51:30.013Z,5.30
2022-08-21T22:54:00.311Z,4.07
2022-08-21T22:56:49.417Z,3.65
2022-08-21T22:59:25.822Z,2.47
2022-08-21T23:02:07.398Z,3.33
2022-08-21T23:04:48.226Z,3.15
2022-08-21T23:07:34.511Z,4.63
2022-08-21T23:10:06.936Z,4.25
2022-08-21T23:12:38.277Z,3.15
2022-08-21T23:15:18.171Z,2.35
2022-08-21T23:21:14.871Z,3.03
2022-08-21T23:23:54.624Z,8.82
2022-08-21T23:26:33.219Z,4.40
2022-08-21T23:29:24.763Z,2.33
2022-08-21T23:32:20.589Z,5.93
2022-08-21T23:35:08.419Z,4.47
2022-08-21T23:37:59.356Z,2.80
2022-08-21T23:40:32.552Z,4.50
2022-08-21T23:43:22.461Z,2.17
2022-08-21T23:45:51.976Z,3.83
2022-08-21T23:48:39.038Z,4.03
2022-08-21T23:51:33.997Z,2.85
2022-08-21T23:54:19.364Z,5.03
2022-08-21T23:57:31.374Z,3.80
